M/V Gs980 — WTK9405 — position and weather

sailwx.info

Track history (hours):
 
Tides and Currents Weather Stations Pressure Air Temp Water Temp Dewpoint Dewpoint Depression Visibility Wind Speed Wind Dir Waves Ship Positions

M/V Gs980

Owner: ERGON MARINE AND INDUSTRIAL SUPPLY, VICKSBURG, MS. More information available from US FCC via Universal Licensing System and Coast Guard Vessel Documentation Center.

Last reported at 2016-Jul-29 23:34 UTC. Time now 2016-Jul-29 23:40 UTC.
Position N 32°20' W 090°54'.

Length 16 m.

Type: Towing. MMSI: 367099640.

Date/timePositionNaut miles runAvg speedWind from/ knotsBaromVisibWave heightAir tempDewpointWater temp
2016-Jul-29 23:34N 32°20' W 090°54'1 0.5
2016-Jul-29 22:21N 32°20' W 090°54'0 0.4
2016-Jul-29 21:34N 32°20' W 090°54'0 0.3
2016-Jul-29 20:34N 32°20' W 090°54'1 0.6
2016-Jul-29 19:33N 32°21' W 090°53'1 1.1
2016-Jul-29 18:33N 32°20' W 090°54'1 0.9
2016-Jul-29 17:34N 32°20' W 090°54'0 0.0
2016-Jul-29 16:34N 32°20' W 090°54'0 0.0
2016-Jul-29 08:33N 32°20' W 090°54'0 0.2
2016-Jul-29 07:33N 32°20' W 090°54'0 0.0
2016-Jul-29 06:33N 32°20' W 090°54'0 0.0
2016-Jul-29 05:33N 32°20' W 090°54'0 0.0
2016-Jul-29 04:33N 32°20' W 090°54'2 2.0
2016-Jul-29 03:33N 32°22' W 090°53'2 1.5
2016-Jul-29 02:33N 32°23' W 090°54'0 0.4
2016-Jul-29 01:33N 32°23' W 090°53'0 0.0
2016-Jul-29 00:33N 32°23' W 090°53'3 3.2
2016-Jul-28 23:33N 32°20' W 090°54'0 0.3
2016-Jul-28 22:16N 32°20' W 090°54'2 2.8
2016-Jul-28 21:33N 32°21' W 090°53'2 1.6
2016-Jul-28 20:33N 32°23' W 090°53'0 0.0
2016-Jul-28 19:33N 32°23' W 090°53'0 0.0
2016-Jul-28 18:33N 32°23' W 090°53'0 0.0
2016-Jul-28 17:33N 32°23' W 090°53'0 0.0
2016-Jul-28 16:33N 32°23' W 090°53'0 0.0
2016-Jul-28 15:33N 32°23' W 090°53'1 0.6
2016-Jul-28 14:33N 32°23' W 090°53'0 0.0
2016-Jul-28 13:33N 32°23' W 090°53'1 1.1
2016-Jul-28 12:33N 32°23' W 090°55'3 2.8
2016-Jul-28 11:33N 32°21' W 090°54'1 0.0
2016-Jul-27 21:34N 32°20' W 090°54'0 0.0
2016-Jul-27 20:34N 32°20' W 090°54'0 0.0
2016-Jul-27 19:34N 32°20' W 090°54'3 2.8
2016-Jul-27 18:34N 32°18' W 090°55'3 3.1
2016-Jul-27 17:34N 32°20' W 090°54'1 1.2
2016-Jul-27 16:34N 32°21' W 090°53'2 1.6
2016-Jul-27 15:33N 32°20' W 090°54'3 3.0
2016-Jul-27 14:34N 32°23' W 090°53'0 0.3
2016-Jul-27 13:33N 32°23' W 090°53'1 1.3
2016-Jul-27 12:33N 32°23' W 090°55'3 2.9
2016-Jul-27 11:34N 32°21' W 090°53'1 1.2
2016-Jul-27 10:27N 32°20' W 090°54'4 4.1
2016-Jul-27 09:33N 32°23' W 090°53'0 0.2
2016-Jul-27 08:33N 32°23' W 090°53'0 0.0
2016-Jul-27 07:33N 32°23' W 090°53'0 0.0
2016-Jul-27 06:33N 32°23' W 090°53'0 0.0
2016-Jul-27 05:33N 32°23' W 090°53'0 0.0
2016-Jul-27 04:33N 32°23' W 090°53'0 0.0
2016-Jul-27 03:33N 32°23' W 090°53'0 0.0
2016-Jul-27 02:33N 32°23' W 090°53'0 0.0
2016-Jul-27 01:33N 32°23' W 090°53'2 1.6
2016-Jul-27 00:33N 32°22' W 090°53'2 1.7
2016-Jul-26 23:33N 32°20' W 090°54'0 0.1
2016-Jul-26 22:15N 32°20' W 090°54'3 3.9
2016-Jul-26 21:33N 32°23' W 090°53'0 0.0
2016-Jul-26 20:33N 32°23' W 090°53'0 0.2
2016-Jul-26 19:33N 32°23' W 090°53'0 0.0
2016-Jul-26 18:33N 32°23' W 090°53'0 0.4
2016-Jul-26 17:33N 32°23' W 090°53'2 1.6
2016-Jul-26 16:33N 32°22' W 090°53'4 3.8
2016-Jul-26 15:33N 32°18' W 090°55'2 1.8
2016-Jul-26 14:33N 32°20' W 090°54'3 3.3
2016-Jul-26 13:34N 32°23' W 090°55'1 1.0
2016-Jul-26 12:33N 32°23' W 090°53'3 2.8
2016-Jul-26 11:33N 32°20' W 090°54'1 0.6
2016-Jul-26 10:17N 32°20' W 090°54'1 1.4
2016-Jul-26 09:33N 32°21' W 090°54'0 0.0
2016-Jul-26 08:33N 32°21' W 090°54'0 0.0
2016-Jul-26 07:33N 32°21' W 090°54'0 0.0
2016-Jul-26 06:33N 32°21' W 090°54'0 0.0
2016-Jul-26 05:33N 32°21' W 090°54'0 0.0
2016-Jul-26 04:33N 32°21' W 090°54'0 0.0
2016-Jul-26 03:33N 32°21' W 090°54'0 0.0
2016-Jul-26 02:33N 32°21' W 090°54'1 0.9
2016-Jul-26 01:33N 32°21' W 090°53'2 1.8
2016-Jul-26 00:33N 32°23' W 090°53'2 2.3
2016-Jul-25 23:33N 32°21' W 090°53'1 1.1
2016-Jul-25 22:34N 32°20' W 090°54'1 0.8
2016-Jul-25 21:33N 32°20' W 090°54'1 1.0
2016-Jul-25 20:33N 32°20' W 090°54'3 3.2
2016-Jul-25 19:33N 32°23' W 090°52'1 1.0
2016-Jul-25 18:33N 32°23' W 090°53'0 0.0
2016-Jul-25 17:33N 32°23' W 090°53'0 0.0
2016-Jul-25 16:33N 32°23' W 090°53'0 0.0
2016-Jul-25 15:33N 32°23' W 090°53'0 0.0
2016-Jul-25 14:33N 32°23' W 090°53'0 0.1
2016-Jul-25 13:33N 32°23' W 090°53'1 0.8
2016-Jul-25 12:33N 32°22' W 090°53'2 1.9
2016-Jul-25 11:33N 32°21' W 090°54'1 1.0
2016-Jul-25 10:33N 32°20' W 090°54'1 1.0
2016-Jul-25 09:33N 32°21' W 090°54'0 0.0
2016-Jul-25 08:33N 32°21' W 090°54'0 0.0
2016-Jul-25 07:33N 32°21' W 090°54'0 0.0
2016-Jul-25 06:33N 32°21' W 090°54'1 0.6
2016-Jul-25 05:33N 32°20' W 090°54'1 1.4
2016-Jul-25 04:33N 32°21' W 090°56'1 0.8
2016-Jul-25 03:33N 32°21' W 090°57'0 0.1
2016-Jul-25 02:33N 32°21' W 090°57'0 0.0
2016-Jul-25 01:33N 32°21' W 090°57'0 0.3
2016-Jul-25 00:33N 32°21' W 090°57'3 2.7
2016-Jul-24 23:33N 32°20' W 090°54'0 0.3
2016-Jul-24 22:12N 32°20' W 090°54'2 3.1
2016-Jul-24 21:34N 32°22' W 090°53'0 0.0
2016-Jul-24 20:32N 32°22' W 090°53'0 0.0
2016-Jul-24 19:33N 32°22' W 090°53'2 1.5
2016-Jul-24 18:33N 32°23' W 090°53'0 0.1
2016-Jul-24 17:34N 32°23' W 090°53'0 0.0
2016-Jul-24 16:33N 32°23' W 090°53'0 0.0
2016-Jul-24 15:33N 32°23' W 090°53'0 0.0
2016-Jul-24 14:33N 32°23' W 090°53'0 0.0
2016-Jul-24 13:33N 32°23' W 090°53'1 0.8
2016-Jul-24 12:33N 32°23' W 090°53'5 1.7
2016-Jul-24 09:34N 32°18' W 090°55'2 2.4
2016-Jul-24 08:33N 32°20' W 090°54'0 0.1
2016-Jul-24 07:33N 32°20' W 090°54'0 0.0
2016-Jul-24 06:33N 32°20' W 090°54'0 0.0
2016-Jul-24 05:34N 32°20' W 090°54'3 2.7
2016-Jul-24 04:33N 32°23' W 090°53'0 0.0
2016-Jul-24 03:34N 32°23' W 090°53'0 0.0
2016-Jul-24 02:34N 32°23' W 090°53'0 0.1
2016-Jul-24 01:33N 32°23' W 090°53'4 4.5
2016-Jul-24 00:33N 32°19' W 090°54'1 0.7
2016-Jul-23 23:33N 32°18' W 090°55'2 1.1
2016-Jul-23 22:07N 32°20' W 090°54'2 4.0
2016-Jul-23 21:33N 32°22' W 090°53'0 0.0
2016-Jul-23 20:34N 32°22' W 090°53'0 0.0
2016-Jul-23 19:34N 32°22' W 090°53'0 0.0
2016-Jul-23 18:33N 32°22' W 090°53'0 0.0
2016-Jul-23 17:34N 32°22' W 090°53'0 0.0
2016-Jul-23 16:33N 32°22' W 090°53'2 1.9
2016-Jul-23 15:33N 32°20' W 090°54'0 0.4
2016-Jul-23 14:33N 32°20' W 090°54'3 2.9
2016-Jul-23 13:33N 32°22' W 090°53'1 0.7
2016-Jul-23 12:34N 32°23' W 090°53'1 1.4
2016-Jul-23 11:33N 32°21' W 090°53'1 1.0
2016-Jul-23 10:15N 32°20' W 090°54'0 0.1
2016-Jul-23 09:33N 32°20' W 090°54'0 0.0
2016-Jul-23 08:33N 32°20' W 090°54'0 0.0
2016-Jul-23 07:33N 32°20' W 090°54'0 0.0
2016-Jul-23 06:33N 32°20' W 090°54'2 1.0
2016-Jul-23 04:33N 32°22' W 090°53'0 0.0
2016-Jul-23 03:33N 32°22' W 090°53'0 0.1
2016-Jul-23 02:33N 32°22' W 090°53'0 0.2
2016-Jul-23 01:33N 32°22' W 090°53'1 0.7
2016-Jul-23 00:33N 32°23' W 090°53'5 4.6
2016-Jul-22 23:31N 32°19' W 090°55'1 0.6
2016-Jul-22 22:33N 32°18' W 090°55'0 0.1
2016-Jul-22 21:34N 32°18' W 090°55'0 0.1
2016-Jul-22 20:33N 32°18' W 090°55'4 3.8
2016-Jul-22 19:33N 32°21' W 090°53'1 0.8
2016-Jul-22 18:33N 32°21' W 090°53'3 2.7
2016-Jul-22 17:34N 32°18' W 090°55'2 2.4
2016-Jul-22 16:34N 32°20' W 090°54'1 0.9
2016-Jul-22 15:34N 32°20' W 090°54'2 2.2
2016-Jul-22 14:33N 32°22' W 090°53'1 1.4
2016-Jul-22 13:33N 32°23' W 090°53'0 0.3
2016-Jul-22 12:33N 32°23' W 090°53'2 2.0
2016-Jul-22 11:33N 32°21' W 090°53'1 0.9
2016-Jul-22 10:16N 32°20' W 090°54'3 4.2
2016-Jul-22 09:34N 32°23' W 090°53'0 0.0
2016-Jul-22 08:33N 32°23' W 090°53'0 0.0
2016-Jul-22 07:34N 32°23' W 090°53'0 0.0
2016-Jul-22 05:33N 32°23' W 090°53'0 0.0
2016-Jul-22 04:33N 32°23' W 090°53'0 0.0
2016-Jul-22 03:34N 32°23' W 090°53'1 0.9
2016-Jul-22 02:33N 32°23' W 090°54'0 0.4
2016-Jul-22 01:34N 32°23' W 090°53'0 0.3
2016-Jul-22 00:33N 32°23' W 090°53'3 2.9
2016-Jul-21 23:34N 32°20' W 090°54'2 1.0
2016-Jul-21 21:32N 32°22' W 090°53'0 0.3
2016-Jul-21 20:34N 32°22' W 090°53'1 0.9
2016-Jul-21 19:33N 32°23' W 090°53'5 5.4
2016-Jul-21 18:33N 32°18' W 090°55'3 2.9
2016-Jul-21 17:33N 32°21' W 090°54'3 2.6
2016-Jul-21 16:32N 32°23' W 090°53'0 0.1
2016-Jul-21 15:33N 32°23' W 090°53'0 0.1
2016-Jul-21 14:34N 32°23' W 090°53'0 0.2
2016-Jul-21 13:33N 32°23' W 090°54'0 0.4
2016-Jul-21 12:34N 32°23' W 090°53'2 2.2
2016-Jul-21 11:33N 32°21' W 090°53'1 0.8
2016-Jul-21 10:20N 32°20' W 090°54'3 3.9
2016-Jul-21 09:33N 32°23' W 090°53'0 0.0
2016-Jul-21 08:33N 32°23' W 090°53'0 0.0
2016-Jul-21 07:33N 32°23' W 090°53'0 0.0
2016-Jul-21 06:33N 32°23' W 090°53'0 0.0
2016-Jul-21 05:33N 32°23' W 090°53'0 0.0
2016-Jul-21 04:32N 32°23' W 090°53'0 0.0
2016-Jul-21 03:33N 32°23' W 090°53'1 0.7
2016-Jul-21 02:33N 32°23' W 090°53'1 0.7
2016-Jul-21 01:33N 32°23' W 090°53'4 4.3
2016-Jul-21 00:33N 32°19' W 090°54'0 0.3
2016-Jul-20 23:33N 32°19' W 090°54'1 0.7
2016-Jul-20 22:11N 32°20' W 090°54'1 1.5
2016-Jul-20 21:33N 32°20' W 090°54'0 0.0
2016-Jul-20 20:33N 32°20' W 090°54'0 0.0
2016-Jul-20 19:34N 32°20' W 090°54'0 0.0
2016-Jul-20 18:33N 32°20' W 090°54'0 0.1
2016-Jul-20 17:34N 32°21' W 090°54'2 1.6
2016-Jul-20 16:33N 32°19' W 090°54'0 0.1
2016-Jul-20 15:33N 32°19' W 090°54'4 4.1
2016-Jul-20 14:33N 32°23' W 090°53'0 0.2
2016-Jul-20 13:34N 32°23' W 090°53'1 0.8
2016-Jul-20 12:33N 32°23' W 090°53'3 3.4
2016-Jul-20 11:34N 32°20' W 090°54'0 0.0
2016-Jul-20 10:22N 32°20' W 090°54'4 4.5
2016-Jul-20 09:33N 32°23' W 090°53'0 0.0
2016-Jul-20 08:33N 32°23' W 090°53'0 0.0
2016-Jul-20 07:33N 32°23' W 090°53'0 0.0
2016-Jul-20 06:34N 32°23' W 090°53'0 0.0
2016-Jul-20 05:33N 32°23' W 090°53'0 0.0
2016-Jul-20 04:33N 32°23' W 090°53'0 0.0
2016-Jul-20 03:33N 32°23' W 090°53'0 0.0
2016-Jul-20 02:33N 32°23' W 090°53'0 0.0
2016-Jul-20 01:33N 32°23' W 090°53'0 0.2
2016-Jul-20 00:33N 32°23' W 090°53'2 1.6
2016-Jul-19 23:33N 32°22' W 090°53'  
Track history (hours):
 
Tides and Currents Weather Stations Pressure Air Temp Water Temp Dewpoint Dewpoint Depression Visibility Wind Speed Wind Dir Waves Ship Positions

M/V Gs980

Owner: ERGON MARINE AND INDUSTRIAL SUPPLY, VICKSBURG, MS. More information available from US FCC via Universal Licensing System and Coast Guard Vessel Documentation Center.

Last reported at 2016-Jul-29 23:34 UTC. Time now 2016-Jul-29 23:40 UTC.
Position N 32°20' W 090°54'.

Length 16 m.

Type: Towing. MMSI: 367099640.

Date/timePositionNaut miles runAvg speedWind from/ knotsBaromVisibWave heightAir tempDewpointWater temp
2016-Jul-29 23:34N 32°20' W 090°54'1 0.5
2016-Jul-29 22:21N 32°20' W 090°54'0 0.4
2016-Jul-29 21:34N 32°20' W 090°54'0 0.3
2016-Jul-29 20:34N 32°20' W 090°54'1 0.6
2016-Jul-29 19:33N 32°21' W 090°53'1 1.1
2016-Jul-29 18:33N 32°20' W 090°54'1 0.9
2016-Jul-29 17:34N 32°20' W 090°54'0 0.0
2016-Jul-29 16:34N 32°20' W 090°54'0 0.0
2016-Jul-29 08:33N 32°20' W 090°54'0 0.2
2016-Jul-29 07:33N 32°20' W 090°54'0 0.0
2016-Jul-29 06:33N 32°20' W 090°54'0 0.0
2016-Jul-29 05:33N 32°20' W 090°54'0 0.0
2016-Jul-29 04:33N 32°20' W 090°54'2 2.0
2016-Jul-29 03:33N 32°22' W 090°53'2 1.5
2016-Jul-29 02:33N 32°23' W 090°54'0 0.4
2016-Jul-29 01:33N 32°23' W 090°53'0 0.0
2016-Jul-29 00:33N 32°23' W 090°53'3 3.2
2016-Jul-28 23:33N 32°20' W 090°54'0 0.3
2016-Jul-28 22:16N 32°20' W 090°54'2 2.8
2016-Jul-28 21:33N 32°21' W 090°53'2 1.6
2016-Jul-28 20:33N 32°23' W 090°53'0 0.0
2016-Jul-28 19:33N 32°23' W 090°53'0 0.0
2016-Jul-28 18:33N 32°23' W 090°53'0 0.0
2016-Jul-28 17:33N 32°23' W 090°53'0 0.0
2016-Jul-28 16:33N 32°23' W 090°53'0 0.0
2016-Jul-28 15:33N 32°23' W 090°53'1 0.6
2016-Jul-28 14:33N 32°23' W 090°53'0 0.0
2016-Jul-28 13:33N 32°23' W 090°53'1 1.1
2016-Jul-28 12:33N 32°23' W 090°55'3 2.8
2016-Jul-28 11:33N 32°21' W 090°54'1 0.0
2016-Jul-27 21:34N 32°20' W 090°54'0 0.0
2016-Jul-27 20:34N 32°20' W 090°54'0 0.0
2016-Jul-27 19:34N 32°20' W 090°54'3 2.8
2016-Jul-27 18:34N 32°18' W 090°55'3 3.1
2016-Jul-27 17:34N 32°20' W 090°54'1 1.2
2016-Jul-27 16:34N 32°21' W 090°53'2 1.6
2016-Jul-27 15:33N 32°20' W 090°54'3 3.0
2016-Jul-27 14:34N 32°23' W 090°53'0 0.3
2016-Jul-27 13:33N 32°23' W 090°53'1 1.3
2016-Jul-27 12:33N 32°23' W 090°55'3 2.9
2016-Jul-27 11:34N 32°21' W 090°53'1 1.2
2016-Jul-27 10:27N 32°20' W 090°54'4 4.1
2016-Jul-27 09:33N 32°23' W 090°53'0 0.2
2016-Jul-27 08:33N 32°23' W 090°53'0 0.0
2016-Jul-27 07:33N 32°23' W 090°53'0 0.0
2016-Jul-27 06:33N 32°23' W 090°53'0 0.0
2016-Jul-27 05:33N 32°23' W 090°53'0 0.0
2016-Jul-27 04:33N 32°23' W 090°53'0 0.0
2016-Jul-27 03:33N 32°23' W 090°53'0 0.0
2016-Jul-27 02:33N 32°23' W 090°53'0 0.0
2016-Jul-27 01:33N 32°23' W 090°53'2 1.6
2016-Jul-27 00:33N 32°22' W 090°53'2 1.7
2016-Jul-26 23:33N 32°20' W 090°54'0 0.1
2016-Jul-26 22:15N 32°20' W 090°54'3 3.9
2016-Jul-26 21:33N 32°23' W 090°53'0 0.0
2016-Jul-26 20:33N 32°23' W 090°53'0 0.2
2016-Jul-26 19:33N 32°23' W 090°53'0 0.0
2016-Jul-26 18:33N 32°23' W 090°53'0 0.4
2016-Jul-26 17:33N 32°23' W 090°53'2 1.6
2016-Jul-26 16:33N 32°22' W 090°53'4 3.8
2016-Jul-26 15:33N 32°18' W 090°55'2 1.8
2016-Jul-26 14:33N 32°20' W 090°54'3 3.3
2016-Jul-26 13:34N 32°23' W 090°55'1 1.0
2016-Jul-26 12:33N 32°23' W 090°53'3 2.8
2016-Jul-26 11:33N 32°20' W 090°54'1 0.6
2016-Jul-26 10:17N 32°20' W 090°54'1 1.4
2016-Jul-26 09:33N 32°21' W 090°54'0 0.0
2016-Jul-26 08:33N 32°21' W 090°54'0 0.0
2016-Jul-26 07:33N 32°21' W 090°54'0 0.0
2016-Jul-26 06:33N 32°21' W 090°54'0 0.0
2016-Jul-26 05:33N 32°21' W 090°54'0 0.0
2016-Jul-26 04:33N 32°21' W 090°54'0 0.0
2016-Jul-26 03:33N 32°21' W 090°54'0 0.0
2016-Jul-26 02:33N 32°21' W 090°54'1 0.9
2016-Jul-26 01:33N 32°21' W 090°53'2 1.8
2016-Jul-26 00:33N 32°23' W 090°53'2 2.3
2016-Jul-25 23:33N 32°21' W 090°53'1 1.1
2016-Jul-25 22:34N 32°20' W 090°54'1 0.8
2016-Jul-25 21:33N 32°20' W 090°54'1 1.0
2016-Jul-25 20:33N 32°20' W 090°54'3 3.2
2016-Jul-25 19:33N 32°23' W 090°52'1 1.0
2016-Jul-25 18:33N 32°23' W 090°53'0 0.0
2016-Jul-25 17:33N 32°23' W 090°53'0 0.0
2016-Jul-25 16:33N 32°23' W 090°53'0 0.0
2016-Jul-25 15:33N 32°23' W 090°53'0 0.0
2016-Jul-25 14:33N 32°23' W 090°53'0 0.1
2016-Jul-25 13:33N 32°23' W 090°53'1 0.8
2016-Jul-25 12:33N 32°22' W 090°53'2 1.9
2016-Jul-25 11:33N 32°21' W 090°54'1 1.0
2016-Jul-25 10:33N 32°20' W 090°54'1 1.0
2016-Jul-25 09:33N 32°21' W 090°54'0 0.0
2016-Jul-25 08:33N 32°21' W 090°54'0 0.0
2016-Jul-25 07:33N 32°21' W 090°54'0 0.0
2016-Jul-25 06:33N 32°21' W 090°54'1 0.6
2016-Jul-25 05:33N 32°20' W 090°54'1 1.4
2016-Jul-25 04:33N 32°21' W 090°56'1 0.8
2016-Jul-25 03:33N 32°21' W 090°57'0 0.1
2016-Jul-25 02:33N 32°21' W 090°57'0 0.0
2016-Jul-25 01:33N 32°21' W 090°57'0 0.3
2016-Jul-25 00:33N 32°21' W 090°57'3 2.7
2016-Jul-24 23:33N 32°20' W 090°54'0 0.3
2016-Jul-24 22:12N 32°20' W 090°54'2 3.1
2016-Jul-24 21:34N 32°22' W 090°53'0 0.0
2016-Jul-24 20:32N 32°22' W 090°53'0 0.0
2016-Jul-24 19:33N 32°22' W 090°53'2 1.5
2016-Jul-24 18:33N 32°23' W 090°53'0 0.1
2016-Jul-24 17:34N 32°23' W 090°53'0 0.0
2016-Jul-24 16:33N 32°23' W 090°53'0 0.0
2016-Jul-24 15:33N 32°23' W 090°53'0 0.0
2016-Jul-24 14:33N 32°23' W 090°53'0 0.0
2016-Jul-24 13:33N 32°23' W 090°53'1 0.8
2016-Jul-24 12:33N 32°23' W 090°53'5 1.7
2016-Jul-24 09:34N 32°18' W 090°55'2 2.4
2016-Jul-24 08:33N 32°20' W 090°54'0 0.1
2016-Jul-24 07:33N 32°20' W 090°54'0 0.0
2016-Jul-24 06:33N 32°20' W 090°54'0 0.0
2016-Jul-24 05:34N 32°20' W 090°54'3 2.7
2016-Jul-24 04:33N 32°23' W 090°53'0 0.0
2016-Jul-24 03:34N 32°23' W 090°53'0 0.0
2016-Jul-24 02:34N 32°23' W 090°53'0 0.1
2016-Jul-24 01:33N 32°23' W 090°53'4 4.5
2016-Jul-24 00:33N 32°19' W 090°54'1 0.7
2016-Jul-23 23:33N 32°18' W 090°55'2 1.1
2016-Jul-23 22:07N 32°20' W 090°54'2 4.0
2016-Jul-23 21:33N 32°22' W 090°53'0 0.0
2016-Jul-23 20:34N 32°22' W 090°53'0 0.0
2016-Jul-23 19:34N 32°22' W 090°53'0 0.0
2016-Jul-23 18:33N 32°22' W 090°53'0 0.0
2016-Jul-23 17:34N 32°22' W 090°53'0 0.0
2016-Jul-23 16:33N 32°22' W 090°53'2 1.9
2016-Jul-23 15:33N 32°20' W 090°54'0 0.4
2016-Jul-23 14:33N 32°20' W 090°54'3 2.9
2016-Jul-23 13:33N 32°22' W 090°53'1 0.7
2016-Jul-23 12:34N 32°23' W 090°53'1 1.4
2016-Jul-23 11:33N 32°21' W 090°53'1 1.0
2016-Jul-23 10:15N 32°20' W 090°54'0 0.1
2016-Jul-23 09:33N 32°20' W 090°54'0 0.0
2016-Jul-23 08:33N 32°20' W 090°54'0 0.0
2016-Jul-23 07:33N 32°20' W 090°54'0 0.0
2016-Jul-23 06:33N 32°20' W 090°54'2 1.0
2016-Jul-23 04:33N 32°22' W 090°53'0 0.0
2016-Jul-23 03:33N 32°22' W 090°53'0 0.1
2016-Jul-23 02:33N 32°22' W 090°53'0 0.2
2016-Jul-23 01:33N 32°22' W 090°53'1 0.7
2016-Jul-23 00:33N 32°23' W 090°53'5 4.6
2016-Jul-22 23:31N 32°19' W 090°55'1 0.6
2016-Jul-22 22:33N 32°18' W 090°55'0 0.1
2016-Jul-22 21:34N 32°18' W 090°55'0 0.1
2016-Jul-22 20:33N 32°18' W 090°55'4 3.8
2016-Jul-22 19:33N 32°21' W 090°53'1 0.8
2016-Jul-22 18:33N 32°21' W 090°53'3 2.7
2016-Jul-22 17:34N 32°18' W 090°55'2 2.4
2016-Jul-22 16:34N 32°20' W 090°54'1 0.9
2016-Jul-22 15:34N 32°20' W 090°54'2 2.2
2016-Jul-22 14:33N 32°22' W 090°53'1 1.4
2016-Jul-22 13:33N 32°23' W 090°53'0 0.3
2016-Jul-22 12:33N 32°23' W 090°53'2 2.0
2016-Jul-22 11:33N 32°21' W 090°53'1 0.9
2016-Jul-22 10:16N 32°20' W 090°54'3 4.2
2016-Jul-22 09:34N 32°23' W 090°53'0 0.0
2016-Jul-22 08:33N 32°23' W 090°53'0 0.0
2016-Jul-22 07:34N 32°23' W 090°53'0 0.0
2016-Jul-22 05:33N 32°23' W 090°53'0 0.0
2016-Jul-22 04:33N 32°23' W 090°53'0 0.0
2016-Jul-22 03:34N 32°23' W 090°53'1 0.9
2016-Jul-22 02:33N 32°23' W 090°54'0 0.4
2016-Jul-22 01:34N 32°23' W 090°53'0 0.3
2016-Jul-22 00:33N 32°23' W 090°53'3 2.9
2016-Jul-21 23:34N 32°20' W 090°54'2 1.0
2016-Jul-21 21:32N 32°22' W 090°53'0 0.3
2016-Jul-21 20:34N 32°22' W 090°53'1 0.9
2016-Jul-21 19:33N 32°23' W 090°53'5 5.4
2016-Jul-21 18:33N 32°18' W 090°55'3 2.9
2016-Jul-21 17:33N 32°21' W 090°54'3 2.6
2016-Jul-21 16:32N 32°23' W 090°53'0 0.1
2016-Jul-21 15:33N 32°23' W 090°53'0 0.1
2016-Jul-21 14:34N 32°23' W 090°53'0 0.2
2016-Jul-21 13:33N 32°23' W 090°54'0 0.4
2016-Jul-21 12:34N 32°23' W 090°53'2 2.2
2016-Jul-21 11:33N 32°21' W 090°53'1 0.8
2016-Jul-21 10:20N 32°20' W 090°54'3 3.9
2016-Jul-21 09:33N 32°23' W 090°53'0 0.0
2016-Jul-21 08:33N 32°23' W 090°53'0 0.0
2016-Jul-21 07:33N 32°23' W 090°53'0 0.0
2016-Jul-21 06:33N 32°23' W 090°53'0 0.0
2016-Jul-21 05:33N 32°23' W 090°53'0 0.0
2016-Jul-21 04:32N 32°23' W 090°53'0 0.0
2016-Jul-21 03:33N 32°23' W 090°53'1 0.7
2016-Jul-21 02:33N 32°23' W 090°53'1 0.7
2016-Jul-21 01:33N 32°23' W 090°53'4 4.3
2016-Jul-21 00:33N 32°19' W 090°54'0 0.3
2016-Jul-20 23:33N 32°19' W 090°54'1 0.7
2016-Jul-20 22:11N 32°20' W 090°54'1 1.5
2016-Jul-20 21:33N 32°20' W 090°54'0 0.0
2016-Jul-20 20:33N 32°20' W 090°54'0 0.0
2016-Jul-20 19:34N 32°20' W 090°54'0 0.0
2016-Jul-20 18:33N 32°20' W 090°54'0 0.1
2016-Jul-20 17:34N 32°21' W 090°54'2 1.6
2016-Jul-20 16:33N 32°19' W 090°54'0 0.1
2016-Jul-20 15:33N 32°19' W 090°54'4 4.1
2016-Jul-20 14:33N 32°23' W 090°53'0 0.2
2016-Jul-20 13:34N 32°23' W 090°53'1 0.8
2016-Jul-20 12:33N 32°23' W 090°53'3 3.4
2016-Jul-20 11:34N 32°20' W 090°54'0 0.0
2016-Jul-20 10:22N 32°20' W 090°54'4 4.5
2016-Jul-20 09:33N 32°23' W 090°53'0 0.0
2016-Jul-20 08:33N 32°23' W 090°53'0 0.0
2016-Jul-20 07:33N 32°23' W 090°53'0 0.0
2016-Jul-20 06:34N 32°23' W 090°53'0 0.0
2016-Jul-20 05:33N 32°23' W 090°53'0 0.0
2016-Jul-20 04:33N 32°23' W 090°53'0 0.0
2016-Jul-20 03:33N 32°23' W 090°53'0 0.0
2016-Jul-20 02:33N 32°23' W 090°53'0 0.0
2016-Jul-20 01:33N 32°23' W 090°53'0 0.2
2016-Jul-20 00:33N 32°23' W 090°53'2 1.6
2016-Jul-19 23:33N 32°22' W 090°53'  

Dump ship's entire track history